createdAt,value
2023-02-11T00:00:46.350Z,48.45
2023-02-11T00:05:47.938Z,48.15
2023-02-11T00:10:49.662Z,50.05
2023-02-11T00:15:51.590Z,49.40
2023-02-11T00:20:53.220Z,53.70
2023-02-11T00:25:54.749Z,52.33
2023-02-11T00:30:56.298Z,52.28
2023-02-11T00:35:57.900Z,54.35
2023-02-11T00:40:59.408Z,52.60
2023-02-11T00:46:01.133Z,65.85
2023-02-11T00:51:02.634Z,53.90
2023-02-11T00:56:04.278Z,54.65
2023-02-11T01:01:05.962Z,52.67
2023-02-11T01:06:07.627Z,60.13
2023-02-11T01:11:09.076Z,51.15
2023-02-11T01:16:10.566Z,54.70
2023-02-11T01:21:12.125Z,61.00
2023-02-11T01:26:13.581Z,57.22
2023-02-11T01:31:15.143Z,57.78
2023-02-11T01:36:16.809Z,51.83
2023-02-11T01:41:18.233Z,57.08
2023-02-11T01:46:19.742Z,52.00
2023-02-11T01:51:21.282Z,49.00
2023-02-11T01:56:22.759Z,52.10
2023-02-11T02:01:24.367Z,51.80
2023-02-11T02:06:25.927Z,48.75
2023-02-11T02:11:27.487Z,50.05
2023-02-11T02:16:28.991Z,56.08
2023-02-11T02:21:30.461Z,47.60
2023-02-11T02:26:31.930Z,51.72
2023-02-11T02:31:33.452Z,51.58
2023-02-11T02:36:34.977Z,49.42
2023-02-11T02:41:36.470Z,60.67
2023-02-11T02:46:38.074Z,46.75
2023-02-11T02:51:39.600Z,46.08
2023-02-11T02:56:41.268Z,44.13
2023-02-11T03:01:42.942Z,49.78
2023-02-11T03:06:44.492Z,58.80
2023-02-11T03:11:46.004Z,47.47
2023-02-11T03:16:47.524Z,49.90
2023-02-11T03:21:49.177Z,46.25
2023-02-11T03:26:50.605Z,47.15
2023-02-11T03:31:52.166Z,46.80
2023-02-11T03:36:53.673Z,54.28
2023-02-11T03:41:55.130Z,55.58
2023-02-11T03:46:56.651Z,54.03
2023-02-11T03:51:58.191Z,49.80
2023-02-11T03:56:59.818Z,53.42
2023-02-11T04:02:01.356Z,51.88
2023-02-11T04:07:03.014Z,53.63
2023-02-11T04:12:04.487Z,48.40
2023-02-11T04:17:05.940Z,45.95
2023-02-11T04:22:07.570Z,47.85
2023-02-11T04:27:09.054Z,51.40
2023-02-11T04:32:10.714Z,48.38
2023-02-11T04:37:12.382Z,48.78
2023-02-11T04:42:14.017Z,45.40
2023-02-11T04:47:15.510Z,43.15
2023-02-11T04:52:17.022Z,45.28
2023-02-11T04:57:18.496Z,47.40
2023-02-11T05:02:24.074Z,48.90
2023-02-11T05:07:25.720Z,43.05
2023-02-11T05:12:27.193Z,39.90
2023-02-11T05:17:28.686Z,32.65
2023-02-11T05:22:30.194Z,36.10
2023-02-11T05:27:31.733Z,43.55
2023-02-11T05:32:33.214Z,38.85
2023-02-11T05:37:34.915Z,42.15
2023-02-11T05:42:36.430Z,37.05
2023-02-11T05:47:37.930Z,41.72
2023-02-11T05:52:39.444Z,40.38
2023-02-11T05:57:41.259Z,40.67
2023-02-11T06:02:42.923Z,43.92
2023-02-11T06:07:44.649Z,38.60
2023-02-11T06:12:47.195Z,43.08
2023-02-11T06:17:48.627Z,42.33
2023-02-11T06:22:50.323Z,44.72
2023-02-11T06:27:51.806Z,39.92
2023-02-11T06:32:53.390Z,45.45
2023-02-11T06:37:55.108Z,46.05
2023-02-11T06:42:56.594Z,49.25
2023-02-11T06:47:58.196Z,44.97
2023-02-11T06:52:59.679Z,42.10
2023-02-11T06:58:01.302Z,38.08
2023-02-11T07:03:02.939Z,41.47
2023-02-11T07:08:04.659Z,42.25
2023-02-11T07:13:06.161Z,48.28
2023-02-11T07:18:07.704Z,46.90
2023-02-11T07:23:09.167Z,50.05
2023-02-11T07:28:11.040Z,40.53
2023-02-11T07:33:12.715Z,38.00
2023-02-11T07:38:14.223Z,46.05
2023-02-11T07:43:15.705Z,40.33
2023-02-11T07:48:17.222Z,36.13
2023-02-11T07:53:18.730Z,36.60
2023-02-11T07:58:20.211Z,41.20
2023-02-11T08:03:21.691Z,36.78
2023-02-11T08:08:23.197Z,40.17
2023-02-11T08:13:24.714Z,36.20
2023-02-11T08:18:26.166Z,33.65
2023-02-11T08:23:27.651Z,37.38
2023-02-11T08:28:29.137Z,38.70
2023-02-11T08:33:30.648Z,42.42
2023-02-11T08:38:32.096Z,44.58
2023-02-11T08:43:33.608Z,34.28
2023-02-11T08:48:35.077Z,44.95
2023-02-11T08:53:36.535Z,39.78
2023-02-11T08:58:37.999Z,43.10
2023-02-11T09:03:39.494Z,38.30
2023-02-11T09:08:40.968Z,36.97
2023-02-11T09:13:42.647Z,46.63
2023-02-11T09:18:44.115Z,41.60
2023-02-11T09:23:45.590Z,39.03
2023-02-11T09:28:47.146Z,39.63
2023-02-11T09:33:48.651Z,38.72
2023-02-11T09:38:50.138Z,37.80
2023-02-11T09:43:51.766Z,36.13
2023-02-11T09:48:53.315Z,35.92
2023-02-11T09:53:54.833Z,32.17
2023-02-11T09:58:56.349Z,31.58
2023-02-11T10:03:57.862Z,37.25
2023-02-11T10:08:59.310Z,29.42
2023-02-11T10:14:00.817Z,34.65
2023-02-11T10:19:02.386Z,33.78
2023-02-11T10:24:03.830Z,27.80
2023-02-11T10:29:05.456Z,29.67
2023-02-11T10:34:06.893Z,36.95
2023-02-11T10:39:08.351Z,30.27
2023-02-11T10:44:09.782Z,34.88
2023-02-11T10:49:11.200Z,31.70
2023-02-11T10:54:13.770Z,34.17
2023-02-11T10:59:15.413Z,32.83
2023-02-11T11:04:16.870Z,31.90
2023-02-11T11:09:18.382Z,33.88
2023-02-11T11:14:19.907Z,33.92
2023-02-11T11:19:21.375Z,31.98
2023-02-11T11:24:22.809Z,31.35
2023-02-11T11:29:24.239Z,32.53
2023-02-11T11:34:25.693Z,29.67
2023-02-11T11:39:27.153Z,41.85
2023-02-11T11:44:28.605Z,39.88
2023-02-11T11:49:32.966Z,33.60
2023-02-11T11:54:34.412Z,33.35
2023-02-11T11:59:35.832Z,37.63
2023-02-11T12:04:37.279Z,26.65
2023-02-11T12:09:38.711Z,34.30
2023-02-11T12:14:40.170Z,34.17
2023-02-11T12:19:41.838Z,32.75
2023-02-11T12:24:43.269Z,35.50
2023-02-11T12:29:44.692Z,33.08
2023-02-11T12:34:46.117Z,31.17
2023-02-11T12:39:47.558Z,33.03
2023-02-11T12:44:50.173Z,33.15
2023-02-11T12:49:51.773Z,34.83
2023-02-11T12:54:53.362Z,32.92
2023-02-11T12:59:54.819Z,36.60
2023-02-11T13:04:56.474Z,36.17
2023-02-11T13:09:58.071Z,25.75
2023-02-11T13:14:59.542Z,33.90
2023-02-11T13:20:01.088Z,34.63
2023-02-11T13:25:02.593Z,38.88
2023-02-11T13:30:04.477Z,36.03
2023-02-11T13:35:06.037Z,36.55
2023-02-11T13:40:07.548Z,32.40
2023-02-11T13:45:09.130Z,36.38
2023-02-11T13:50:10.789Z,34.00
2023-02-11T13:55:12.472Z,36.67
2023-02-11T14:00:13.942Z,36.95
2023-02-11T14:05:15.526Z,34.33
2023-02-11T14:10:16.985Z,31.88
2023-02-11T14:15:18.622Z,29.33
2023-02-11T14:20:20.098Z,30.77
2023-02-11T14:25:21.549Z,26.40
2023-02-11T14:30:22.972Z,34.03
2023-02-11T14:35:27.396Z,37.10
2023-02-11T14:40:28.859Z,33.38
2023-02-11T14:45:30.297Z,33.75
2023-02-11T14:50:31.931Z,38.55
2023-02-11T14:55:33.392Z,36.17
2023-02-11T15:00:34.894Z,38.08
2023-02-11T15:05:36.353Z,36.40
2023-02-11T15:10:38.066Z,36.40
2023-02-11T15:15:39.609Z,35.92
2023-02-11T15:20:41.250Z,32.78
2023-02-11T15:25:42.704Z,36.05
2023-02-11T15:30:44.409Z,35.05
2023-02-11T15:35:45.903Z,40.92
2023-02-11T15:40:47.527Z,35.70
2023-02-11T15:45:48.988Z,43.97
2023-02-11T15:50:50.796Z,42.17
2023-02-11T15:55:52.654Z,46.85
2023-02-11T16:00:54.421Z,45.53
2023-02-11T16:05:55.940Z,40.35
2023-02-11T16:10:57.410Z,44.72
2023-02-11T16:15:58.901Z,46.20
2023-02-11T16:21:00.357Z,40.33
2023-02-11T16:26:01.778Z,42.35
2023-02-11T16:31:03.290Z,43.67
2023-02-11T16:36:04.946Z,39.85
2023-02-11T16:41:06.607Z,39.78
2023-02-11T16:46:08.278Z,42.45
2023-02-11T16:51:09.758Z,42.40
2023-02-11T16:56:11.378Z,42.30
2023-02-11T17:01:14.124Z,35.90
2023-02-11T17:06:15.941Z,30.20
2023-02-11T17:11:17.582Z,36.22
2023-02-11T17:16:19.099Z,41.80
2023-02-11T17:21:20.611Z,38.42
2023-02-11T17:26:22.062Z,39.85
2023-02-11T17:31:23.628Z,39.80
2023-02-11T17:36:25.236Z,39.75
2023-02-11T17:41:26.700Z,34.95
2023-02-11T17:46:28.301Z,34.33
2023-02-11T17:51:29.980Z,35.13
2023-02-11T17:56:31.644Z,36.35
2023-02-11T18:01:33.442Z,30.25
2023-02-11T18:06:34.960Z,36.45
2023-02-11T18:11:36.391Z,39.50
2023-02-11T18:16:38.010Z,34.60
2023-02-11T18:21:39.739Z,38.70
2023-02-11T18:26:41.223Z,34.50
2023-02-11T18:31:42.773Z,34.65
2023-02-11T18:36:44.360Z,35.92
2023-02-11T18:41:45.817Z,35.85
2023-02-11T18:46:47.397Z,33.95
2023-02-11T18:51:48.892Z,35.63
2023-02-11T18:56:50.500Z,42.78
2023-02-11T19:01:52.145Z,38.20
2023-02-11T19:06:53.791Z,39.88
2023-02-11T19:11:55.453Z,37.47
2023-02-11T19:16:57.251Z,35.97
2023-02-11T19:21:58.821Z,36.85
2023-02-11T19:27:00.492Z,42.17
2023-02-11T19:32:02.188Z,41.88
2023-02-11T19:37:03.676Z,39.30
2023-02-11T19:42:05.299Z,42.10
2023-02-11T19:47:06.784Z,47.17
2023-02-11T19:52:08.415Z,40.88
2023-02-11T19:57:10.137Z,38.97
2023-02-11T20:02:11.672Z,36.90
2023-02-11T20:07:13.375Z,34.75
2023-02-11T20:12:15.057Z,35.28
2023-02-11T20:17:16.536Z,33.70
2023-02-11T20:22:18.174Z,30.98
2023-02-11T20:27:20.172Z,34.35
2023-02-11T20:32:21.811Z,40.30
2023-02-11T20:37:23.448Z,46.75
2023-02-11T20:42:25.045Z,48.15
2023-02-11T20:47:26.621Z,35.33
2023-02-11T20:52:28.313Z,42.65
2023-02-11T20:57:29.981Z,39.38
2023-02-11T21:02:31.581Z,43.53
2023-02-11T21:07:33.032Z,45.50
2023-02-11T21:12:34.520Z,46.67
2023-02-11T21:17:35.961Z,52.05
2023-02-11T21:22:37.398Z,49.85
2023-02-11T21:27:38.967Z,53.67
2023-02-11T21:32:40.459Z,47.75
2023-02-11T21:37:41.976Z,45.40
2023-02-11T21:42:43.416Z,48.17
2023-02-11T21:47:44.845Z,52.35
2023-02-11T21:52:46.318Z,49.55
2023-02-11T21:57:47.864Z,45.33
2023-02-11T22:02:49.922Z,46.90
2023-02-11T22:07:51.440Z,45.10
2023-02-11T22:12:52.919Z,47.45
2023-02-11T22:17:54.400Z,45.15
2023-02-11T22:22:55.884Z,47.92
2023-02-11T22:27:57.328Z,47.80
2023-02-11T22:32:58.793Z,51.03
2023-02-11T22:38:00.279Z,47.45
2023-02-11T22:43:01.755Z,50.80
2023-02-11T22:48:03.223Z,48.72
2023-02-11T22:53:04.759Z,49.17
2023-02-11T22:58:06.197Z,46.17
2023-02-11T23:03:07.613Z,47.00
2023-02-11T23:08:09.082Z,46.67
2023-02-11T23:13:10.570Z,43.03
2023-02-11T23:18:12.056Z,46.85
2023-02-11T23:23:13.487Z,45.90
2023-02-11T23:28:14.955Z,43.72
2023-02-11T23:33:16.436Z,46.75
2023-02-11T23:38:17.877Z,44.13
2023-02-11T23:43:19.343Z,49.88
2023-02-11T23:48:20.822Z,44.60
2023-02-11T23:53:22.248Z,44.67
2023-02-11T23:58:23.677Z,46.38
